createdAt,value
2023-02-18T00:01:44.187Z,98186.00
2023-02-18T00:04:12.477Z,98185.00
2023-02-18T00:06:40.823Z,98182.00
2023-02-18T00:09:09.430Z,98176.00
2023-02-18T00:11:40.021Z,98181.00
2023-02-18T00:14:15.456Z,98181.00
2023-02-18T00:16:45.136Z,98176.00
2023-02-18T00:19:16.946Z,98186.00
2023-02-18T00:21:46.223Z,98195.00
2023-02-18T00:24:16.913Z,98185.00
2023-02-18T00:26:46.714Z,98177.00
2023-02-18T00:29:15.066Z,98175.00
2023-02-18T00:31:43.605Z,98174.00
2023-02-18T00:34:13.940Z,98187.00
2023-02-18T00:36:42.821Z,98180.00
2023-02-18T00:39:13.417Z,98171.00
2023-02-18T00:41:43.216Z,98184.00
2023-02-18T00:44:13.956Z,98167.00
2023-02-18T00:46:42.706Z,98185.00
2023-02-18T00:49:11.265Z,98173.00
2023-02-18T00:51:39.466Z,98174.00
2023-02-18T00:54:09.293Z,98174.00
2023-02-18T00:56:37.434Z,98172.00
2023-02-18T00:59:05.582Z,98194.00
2023-02-18T01:01:35.449Z,98197.00
2023-02-18T01:04:03.839Z,98180.00
2023-02-18T01:06:33.306Z,98178.00
2023-02-18T01:09:01.520Z,98177.00
2023-02-18T01:11:31.004Z,98176.00
2023-02-18T01:13:59.397Z,98184.00
2023-02-18T01:16:27.622Z,98179.00
2023-02-18T01:18:57.211Z,98182.00
2023-02-18T01:21:27.683Z,98191.00
2023-02-18T01:23:55.849Z,98180.00
2023-02-18T01:26:24.203Z,98156.00
2023-02-18T01:28:52.448Z,98155.00
2023-02-18T01:31:22.468Z,98161.00
2023-02-18T01:33:50.758Z,98163.00
2023-02-18T01:36:20.423Z,98180.00
2023-02-18T01:38:48.677Z,98172.00
2023-02-18T01:41:18.028Z,98166.00
2023-02-18T01:43:46.285Z,98176.00
2023-02-18T01:46:20.958Z,98171.00
2023-02-18T01:48:54.705Z,98163.00
2023-02-18T01:51:29.582Z,98169.00
2023-02-18T01:54:04.334Z,98157.00
2023-02-18T01:56:36.918Z,98167.00
2023-02-18T01:59:10.994Z,98167.00
2023-02-18T02:01:43.494Z,98170.00
2023-02-18T02:04:12.256Z,98173.00
2023-02-18T02:06:44.109Z,98173.00
2023-02-18T02:09:17.519Z,98164.00
2023-02-18T02:12:25.765Z,98166.00
2023-02-18T02:15:13.316Z,98147.00
2023-02-18T02:17:53.928Z,98138.00
2023-02-18T02:21:17.073Z,98144.00
2023-02-18T02:24:42.673Z,98152.00
2023-02-18T02:27:24.178Z,98126.00
2023-02-18T02:30:33.370Z,98135.00
2023-02-18T02:33:48.675Z,98135.00
2023-02-18T02:36:25.891Z,98139.00
2023-02-18T02:39:04.709Z,98127.00
2023-02-18T02:41:49.022Z,98136.00
2023-02-18T02:44:24.216Z,98124.00
2023-02-18T02:46:58.436Z,98111.00
2023-02-18T02:49:41.832Z,98107.00
2023-02-18T02:52:18.516Z,98110.00
2023-02-18T02:54:47.294Z,98113.00
2023-02-18T02:57:45.668Z,98115.00
2023-02-18T03:00:21.929Z,98117.00
2023-02-18T03:03:12.569Z,98113.00
2023-02-18T03:05:59.686Z,98105.00
2023-02-18T03:08:48.163Z,98111.00
2023-02-18T03:11:19.507Z,98110.00
2023-02-18T03:14:03.093Z,98108.00
2023-02-18T03:16:44.919Z,98101.00
2023-02-18T03:19:22.679Z,98109.00
2023-02-18T03:21:59.134Z,98111.00
2023-02-18T03:24:35.089Z,98104.00
2023-02-18T03:27:12.548Z,98111.00
2023-02-18T03:29:44.212Z,98100.00
2023-02-18T03:32:18.389Z,98099.00
2023-02-18T03:34:53.060Z,98104.00
2023-02-18T03:37:22.414Z,98111.00
2023-02-18T03:39:59.813Z,98119.00
2023-02-18T03:42:30.040Z,98117.00
2023-02-18T03:44:59.156Z,98106.00
2023-02-18T03:47:31.034Z,98116.00
2023-02-18T03:49:59.416Z,98123.00
2023-02-18T03:52:27.590Z,98107.00
2023-02-18T03:54:58.029Z,98106.00
2023-02-18T03:57:26.405Z,98111.00
2023-02-18T03:59:54.619Z,98134.00
2023-02-18T04:02:22.971Z,98132.00
2023-02-18T04:04:51.188Z,98129.00
2023-02-18T04:07:19.425Z,98127.00
2023-02-18T04:09:47.935Z,98126.00
2023-02-18T04:12:17.726Z,98119.00
2023-02-18T04:14:46.128Z,98118.00
2023-02-18T04:17:14.417Z,98127.00
2023-02-18T04:19:42.793Z,98120.00
2023-02-18T04:22:11.028Z,98124.00
2023-02-18T04:24:39.304Z,98124.00
2023-02-18T04:27:07.584Z,98120.00
2023-02-18T04:29:37.464Z,98133.00
2023-02-18T04:32:06.319Z,98118.00
2023-02-18T04:34:34.530Z,98111.00
2023-02-18T04:37:02.876Z,98114.00
2023-02-18T04:39:31.206Z,98117.00
2023-02-18T04:41:59.550Z,98112.00
2023-02-18T04:44:28.005Z,98121.00
2023-02-18T04:46:57.687Z,98116.00
2023-02-18T04:49:26.134Z,98109.00
2023-02-18T04:51:54.345Z,98115.00
2023-02-18T04:54:22.558Z,98108.00
2023-02-18T04:56:50.718Z,98118.00
2023-02-18T04:59:19.022Z,98124.00
2023-02-18T05:01:47.243Z,98114.00
2023-02-18T05:04:18.210Z,98113.00
2023-02-18T05:06:46.590Z,98110.00
2023-02-18T05:09:15.889Z,98118.00
2023-02-18T05:11:44.688Z,98112.00
2023-02-18T05:14:12.993Z,98114.00
2023-02-18T05:16:41.360Z,98106.00
2023-02-18T05:19:09.553Z,98113.00
2023-02-18T05:21:39.240Z,98103.00
2023-02-18T05:24:08.712Z,98104.00
2023-02-18T05:26:37.493Z,98106.00
2023-02-18T05:29:05.900Z,98099.00
2023-02-18T05:31:34.860Z,98096.00
2023-02-18T05:34:03.252Z,98092.00
2023-02-18T05:36:31.528Z,98090.00
2023-02-18T05:39:01.107Z,98084.00
2023-02-18T05:41:32.042Z,98084.00
2023-02-18T05:44:17.565Z,98096.00
2023-02-18T05:46:45.791Z,98080.00
2023-02-18T05:49:14.021Z,98079.00
2023-02-18T05:51:42.312Z,98092.00
2023-02-18T05:54:11.874Z,98082.00
2023-02-18T05:56:40.026Z,98093.00
2023-02-18T05:59:08.244Z,98088.00
2023-02-18T06:01:36.521Z,98080.00
2023-02-18T06:04:04.857Z,98087.00
2023-02-18T06:06:33.159Z,98090.00
2023-02-18T06:09:01.453Z,98090.00
2023-02-18T06:11:31.334Z,98096.00
2023-02-18T06:13:59.974Z,98093.00
2023-02-18T06:16:28.921Z,98101.00
2023-02-18T06:18:58.194Z,98085.00
2023-02-18T06:21:26.807Z,98097.00
2023-02-18T06:23:55.008Z,98101.00
2023-02-18T06:26:23.288Z,98098.00
2023-02-18T06:28:52.800Z,98089.00
2023-02-18T06:31:21.158Z,98094.00
2023-02-18T06:33:49.476Z,98093.00
2023-02-18T06:36:17.755Z,98079.00
2023-02-18T06:38:48.206Z,98077.00
2023-02-18T06:41:16.988Z,98091.00
2023-02-18T06:43:45.265Z,98093.00
2023-02-18T06:46:14.901Z,98080.00
2023-02-18T06:48:43.192Z,98084.00
2023-02-18T06:51:11.376Z,98082.00
2023-02-18T06:53:39.665Z,98086.00
2023-02-18T06:56:08.835Z,98079.00
2023-02-18T06:58:37.777Z,98087.00
2023-02-18T07:01:06.546Z,98081.00
2023-02-18T07:03:36.623Z,98068.00
2023-02-18T07:06:05.886Z,98066.00
2023-02-18T07:08:36.193Z,98059.00
2023-02-18T07:11:04.735Z,98057.00
2023-02-18T07:13:32.968Z,98064.00
2023-02-18T07:16:01.320Z,98050.00
2023-02-18T07:18:29.738Z,98049.00
2023-02-18T07:20:59.283Z,98049.00
2023-02-18T07:23:27.527Z,98055.00
2023-02-18T07:26:06.303Z,98045.00
2023-02-18T07:28:34.608Z,98041.00
2023-02-18T07:31:03.350Z,98053.00
2023-02-18T07:33:32.093Z,98057.00
2023-02-18T07:36:03.417Z,98053.00
2023-02-18T07:38:32.190Z,98047.00
2023-02-18T07:41:00.941Z,98050.00
2023-02-18T07:43:29.220Z,98049.00
2023-02-18T07:45:57.367Z,98047.00
2023-02-18T07:48:25.575Z,98040.00
2023-02-18T07:50:53.818Z,98053.00
2023-02-18T07:53:23.368Z,98057.00
2023-02-18T07:55:51.684Z,98059.00
2023-02-18T07:58:24.467Z,98067.00
2023-02-18T08:00:54.229Z,98047.00
2023-02-18T08:03:25.270Z,98058.00
2023-02-18T08:05:54.471Z,98060.00
2023-02-18T08:08:27.106Z,98052.00
2023-02-18T08:11:01.047Z,98051.00
2023-02-18T08:13:31.657Z,98046.00
2023-02-18T08:16:00.139Z,98032.00
2023-02-18T08:18:28.716Z,98033.00
2023-02-18T08:20:56.968Z,98035.00
2023-02-18T08:23:26.594Z,98034.00
2023-02-18T08:25:55.648Z,98044.00
2023-02-18T08:28:25.963Z,98047.00
2023-02-18T08:30:55.917Z,98035.00
2023-02-18T08:33:25.669Z,98029.00
2023-02-18T08:35:56.017Z,98026.00
2023-02-18T08:38:26.501Z,98032.00
2023-02-18T08:41:04.612Z,98017.00
2023-02-18T08:43:32.988Z,98026.00
2023-02-18T08:46:01.535Z,98012.00
2023-02-18T08:48:31.439Z,98016.00
2023-02-18T08:51:00.267Z,98010.00
2023-02-18T08:53:29.810Z,98015.00
2023-02-18T08:55:58.013Z,98007.00
2023-02-18T08:58:26.173Z,98006.00
2023-02-18T09:00:54.445Z,98012.00
2023-02-18T09:03:22.695Z,98018.00
2023-02-18T09:05:50.886Z,98011.00
2023-02-18T09:08:19.498Z,97992.00
2023-02-18T09:10:49.351Z,97995.00
2023-02-18T09:13:17.571Z,97991.00
2023-02-18T09:15:45.835Z,97990.00
2023-02-18T09:18:14.016Z,97986.00
2023-02-18T09:20:42.250Z,97981.00
2023-02-18T09:23:10.365Z,97964.00
2023-02-18T09:25:41.110Z,97953.00
2023-02-18T09:28:10.621Z,97953.00
2023-02-18T09:30:40.726Z,97950.00
2023-02-18T09:33:08.954Z,97945.00
2023-02-18T09:35:41.655Z,97955.00
2023-02-18T09:38:11.654Z,97945.00
2023-02-18T09:40:45.327Z,97944.00
2023-02-18T09:43:25.484Z,97943.00
2023-02-18T09:45:55.984Z,97941.00
2023-02-18T09:48:31.696Z,97949.00
2023-02-18T09:51:03.840Z,97945.00
2023-02-18T09:53:32.099Z,97950.00
2023-02-18T09:56:02.918Z,97956.00
2023-02-18T09:58:35.511Z,97949.00
2023-02-18T10:01:12.163Z,97944.00
2023-02-18T10:03:41.131Z,97953.00
2023-02-18T10:06:17.349Z,97952.00
2023-02-18T10:08:49.221Z,97956.00
2023-02-18T10:11:22.919Z,97940.00
2023-02-18T10:13:54.336Z,97940.00
2023-02-18T10:16:26.079Z,97926.00
2023-02-18T10:19:00.486Z,97931.00
2023-02-18T10:21:35.931Z,97953.00
2023-02-18T10:24:13.584Z,97942.00
2023-02-18T10:26:41.822Z,97927.00
2023-02-18T10:29:21.249Z,97931.00
2023-02-18T10:31:58.306Z,97935.00
2023-02-18T10:34:45.912Z,97915.00
2023-02-18T10:37:44.593Z,97925.00
2023-02-18T10:40:23.358Z,97946.00
2023-02-18T10:43:07.628Z,97908.00
2023-02-18T10:45:50.765Z,97903.00
2023-02-18T10:48:40.960Z,97886.00
2023-02-18T10:51:17.565Z,97905.00
2023-02-18T10:53:49.239Z,97879.00
2023-02-18T10:56:37.233Z,97923.00
2023-02-18T10:59:14.916Z,97896.00
2023-02-18T11:01:45.329Z,97911.00
2023-02-18T11:04:18.862Z,97902.00
2023-02-18T11:06:50.555Z,97891.00
2023-02-18T11:09:42.101Z,97894.00
2023-02-18T11:12:21.065Z,97907.00
2023-02-18T11:15:04.342Z,97887.00
2023-02-18T11:17:37.278Z,97896.00
2023-02-18T11:20:32.486Z,97896.00
2023-02-18T11:23:21.042Z,97877.00
2023-02-18T11:26:01.561Z,97876.00
2023-02-18T11:28:42.553Z,97888.00
2023-02-18T11:31:17.813Z,97874.00
2023-02-18T11:33:53.752Z,97884.00
2023-02-18T11:36:26.817Z,97872.00
2023-02-18T11:38:58.468Z,97858.00
2023-02-18T11:41:36.466Z,97865.00
2023-02-18T11:44:08.897Z,97882.00
2023-02-18T11:46:37.044Z,97851.00
2023-02-18T11:49:25.629Z,97851.00
2023-02-18T11:51:54.500Z,97855.00
2023-02-18T11:54:29.991Z,97857.00
2023-02-18T11:57:03.354Z,97869.00
2023-02-18T11:59:37.861Z,97828.00
2023-02-18T12:02:28.899Z,97850.00
2023-02-18T12:05:05.265Z,97839.00
2023-02-18T12:07:43.830Z,97830.00
2023-02-18T12:10:25.428Z,97840.00
2023-02-18T12:13:02.255Z,97825.00
2023-02-18T12:15:54.838Z,97844.00
2023-02-18T12:18:42.883Z,97850.00
2023-02-18T12:21:40.812Z,97854.00
2023-02-18T12:24:41.346Z,97828.00
2023-02-18T12:27:21.993Z,97848.00
2023-02-18T12:30:19.544Z,97836.00
2023-02-18T12:32:57.238Z,97845.00
2023-02-18T12:35:55.225Z,97848.00
2023-02-18T12:38:58.105Z,97844.00
2023-02-18T12:41:58.103Z,97833.00
2023-02-18T12:44:45.215Z,97832.00
2023-02-18T12:47:43.557Z,97844.00
2023-02-18T12:50:58.234Z,97819.00
2023-02-18T12:53:55.003Z,97836.00
2023-02-18T12:57:07.482Z,97814.00
2023-02-18T13:00:17.714Z,97834.00
2023-02-18T13:03:25.127Z,97821.00
2023-02-18T13:06:04.859Z,97811.00
2023-02-18T13:08:47.033Z,97819.00
2023-02-18T13:11:32.525Z,97811.00
2023-02-18T13:14:10.035Z,97807.00
2023-02-18T13:16:42.423Z,97809.00
2023-02-18T13:19:22.883Z,97802.00
2023-02-18T13:21:55.486Z,97790.00
2023-02-18T13:24:34.016Z,97794.00
2023-02-18T13:27:15.844Z,97804.00
2023-02-18T13:29:52.616Z,97799.00
2023-02-18T13:32:30.600Z,97797.00
2023-02-18T13:35:09.952Z,97782.00
2023-02-18T13:37:56.954Z,97772.00
2023-02-18T13:40:30.515Z,97788.00
2023-02-18T13:43:21.672Z,97806.00
2023-02-18T13:46:11.703Z,97791.00
2023-02-18T13:48:47.253Z,97776.00
2023-02-18T13:51:19.247Z,97767.00
2023-02-18T13:53:53.511Z,97755.00
2023-02-18T13:56:30.662Z,97771.00
2023-02-18T13:59:09.131Z,97757.00
2023-02-18T14:01:45.463Z,97787.00
2023-02-18T14:04:38.103Z,97776.00
2023-02-18T14:07:40.099Z,97786.00
2023-02-18T14:10:34.164Z,97770.00
2023-02-18T14:13:40.836Z,97780.00
2023-02-18T14:16:11.131Z,97770.00
2023-02-18T14:19:01.029Z,97772.00
2023-02-18T14:21:42.199Z,97778.00
2023-02-18T14:24:13.627Z,97783.00
2023-02-18T14:26:47.670Z,97766.00
2023-02-18T14:29:28.729Z,97772.00
2023-02-18T14:32:04.340Z,97748.00
2023-02-18T14:35:09.354Z,97752.00
2023-02-18T14:38:18.024Z,97752.00
2023-02-18T14:41:38.330Z,97769.00
2023-02-18T14:44:49.118Z,97761.00
2023-02-18T14:47:30.236Z,97761.00
2023-02-18T14:50:03.681Z,97730.00
2023-02-18T14:52:36.868Z,97753.00
2023-02-18T14:55:09.315Z,97755.00
2023-02-18T14:57:45.828Z,97760.00
2023-02-18T15:00:20.025Z,97774.00
2023-02-18T15:02:51.511Z,97776.00
2023-02-18T15:05:22.967Z,97752.00
2023-02-18T15:07:59.986Z,97779.00
2023-02-18T15:10:40.117Z,97783.00
2023-02-18T15:13:17.923Z,97778.00
2023-02-18T15:15:53.388Z,97772.00
2023-02-18T15:18:30.883Z,97762.00
2023-02-18T15:21:02.404Z,97776.00
2023-02-18T15:23:32.123Z,97771.00
2023-02-18T15:26:00.659Z,97778.00
2023-02-18T15:28:32.232Z,97789.00
2023-02-18T15:31:05.013Z,97793.00
2023-02-18T15:33:33.479Z,97798.00
2023-02-18T15:36:03.998Z,97791.00
2023-02-18T15:38:33.230Z,97798.00
2023-02-18T15:41:03.965Z,97796.00
2023-02-18T15:43:32.417Z,97825.00
2023-02-18T15:46:15.489Z,97798.00
2023-02-18T15:48:48.448Z,97811.00
2023-02-18T15:51:23.048Z,97812.00
2023-02-18T15:53:55.629Z,97823.00
2023-02-18T15:56:35.092Z,97833.00
2023-02-18T15:59:11.359Z,97826.00
2023-02-18T16:01:41.173Z,97832.00
2023-02-18T16:04:15.027Z,97829.00
2023-02-18T16:06:50.224Z,97826.00
2023-02-18T16:09:25.081Z,97834.00
2023-02-18T16:11:59.352Z,97836.00
2023-02-18T16:14:34.316Z,97831.00
2023-02-18T16:17:18.764Z,97843.00
2023-02-18T16:20:05.575Z,97837.00
2023-02-18T16:22:37.659Z,97830.00
2023-02-18T16:25:17.396Z,97838.00
2023-02-18T16:27:53.627Z,97846.00
2023-02-18T16:30:26.319Z,97833.00
2023-02-18T16:32:58.007Z,97840.00
2023-02-18T16:35:40.459Z,97843.00
2023-02-18T16:38:20.438Z,97847.00
2023-02-18T16:40:49.346Z,97845.00
2023-02-18T16:43:19.645Z,97841.00
2023-02-18T16:45:51.341Z,97838.00
2023-02-18T16:48:27.679Z,97837.00
2023-02-18T16:50:56.446Z,97848.00
2023-02-18T16:53:24.744Z,97845.00
2023-02-18T16:55:53.152Z,97844.00
2023-02-18T16:58:21.285Z,97848.00
2023-02-18T17:00:53.108Z,97860.00
2023-02-18T17:03:23.374Z,97854.00
2023-02-18T17:05:51.650Z,97859.00
2023-02-18T17:08:23.477Z,97859.00
2023-02-18T17:10:54.034Z,97850.00
2023-02-18T17:13:25.319Z,97862.00
2023-02-18T17:15:56.028Z,97866.00
2023-02-18T17:18:27.000Z,97858.00
2023-02-18T17:20:57.099Z,97865.00
2023-02-18T17:23:25.787Z,97868.00
2023-02-18T17:25:54.997Z,97867.00
2023-02-18T17:28:23.277Z,97877.00
2023-02-18T17:30:57.809Z,97862.00
2023-02-18T17:33:27.671Z,97879.00
2023-02-18T17:35:55.903Z,97885.00
2023-02-18T17:38:24.605Z,97866.00
2023-02-18T17:40:52.778Z,97891.00
2023-02-18T17:43:23.644Z,97893.00
2023-02-18T17:45:55.889Z,97890.00
2023-02-18T17:48:24.586Z,97901.00
2023-02-18T17:50:54.846Z,97907.00
2023-02-18T17:53:23.475Z,97901.00
2023-02-18T17:55:52.585Z,97908.00
2023-02-18T17:58:20.877Z,97905.00
2023-02-18T18:00:52.497Z,97900.00
2023-02-18T18:03:21.169Z,97920.00
2023-02-18T18:05:54.388Z,97902.00
2023-02-18T18:08:22.703Z,97910.00
2023-02-18T18:10:54.633Z,97923.00
2023-02-18T18:13:25.897Z,97910.00
2023-02-18T18:15:56.798Z,97914.00
2023-02-18T18:18:26.408Z,97908.00
2023-02-18T18:21:00.006Z,97908.00
2023-02-18T18:23:29.296Z,97923.00
2023-02-18T18:25:59.735Z,97926.00
2023-02-18T18:28:32.985Z,97914.00
2023-02-18T18:31:02.553Z,97899.00
2023-02-18T18:33:34.540Z,97906.00
2023-02-18T18:36:04.537Z,97913.00
2023-02-18T18:38:32.878Z,97908.00
2023-02-18T18:41:01.167Z,97911.00
2023-02-18T18:43:33.322Z,97912.00
2023-02-18T18:46:02.046Z,97916.00
2023-02-18T18:48:30.362Z,97920.00
2023-02-18T18:51:01.402Z,97917.00
2023-02-18T18:53:33.570Z,97926.00
2023-02-18T18:56:04.530Z,97916.00
2023-02-18T18:58:33.034Z,97918.00
2023-02-18T19:01:06.710Z,97927.00
2023-02-18T19:03:35.538Z,97928.00
2023-02-18T19:06:03.843Z,97929.00
2023-02-18T19:08:34.181Z,97922.00
2023-02-18T19:11:04.059Z,97941.00
2023-02-18T19:13:35.846Z,97943.00
2023-02-18T19:16:22.275Z,97941.00
2023-02-18T19:18:50.720Z,97951.00
2023-02-18T19:21:18.897Z,97937.00
2023-02-18T19:23:48.444Z,97946.00
2023-02-18T19:26:17.544Z,97940.00
2023-02-18T19:28:46.551Z,97946.00
2023-02-18T19:31:15.242Z,97948.00
2023-02-18T19:33:46.729Z,97941.00
2023-02-18T19:36:16.649Z,97946.00
2023-02-18T19:38:45.587Z,97950.00
2023-02-18T19:41:17.689Z,97953.00
2023-02-18T19:43:46.667Z,97948.00
2023-02-18T19:46:18.377Z,97950.00
2023-02-18T19:48:50.919Z,97944.00
2023-02-18T19:51:19.569Z,97940.00
2023-02-18T19:53:48.180Z,97950.00
2023-02-18T19:56:17.846Z,97948.00
2023-02-18T19:58:46.045Z,97949.00
2023-02-18T20:01:18.364Z,97946.00
2023-02-18T20:03:47.337Z,97939.00
2023-02-18T20:06:18.173Z,97942.00
2023-02-18T20:08:47.077Z,97950.00
2023-02-18T20:11:16.758Z,97944.00
2023-02-18T20:13:45.131Z,97943.00
2023-02-18T20:16:13.764Z,97945.00
2023-02-18T20:18:42.376Z,97950.00
2023-02-18T20:21:12.514Z,97945.00
2023-02-18T20:23:41.190Z,97953.00
2023-02-18T20:26:09.739Z,97945.00
2023-02-18T20:28:39.563Z,97960.00
2023-02-18T20:31:09.797Z,97946.00
2023-02-18T20:33:38.452Z,97959.00
2023-02-18T20:36:08.668Z,97939.00
2023-02-18T20:38:38.676Z,97944.00
2023-02-18T20:41:08.230Z,97944.00
2023-02-18T20:43:38.051Z,97939.00
2023-02-18T20:46:09.333Z,97941.00
2023-02-18T20:48:39.325Z,97942.00
2023-02-18T20:51:10.032Z,97950.00
2023-02-18T20:53:41.479Z,97953.00
2023-02-18T20:56:10.576Z,97961.00
2023-02-18T20:58:41.067Z,97946.00
2023-02-18T21:01:12.432Z,97949.00
2023-02-18T21:03:42.210Z,97958.00
2023-02-18T21:06:13.914Z,97953.00
2023-02-18T21:08:44.807Z,97950.00
2023-02-18T21:11:16.944Z,97952.00
2023-02-18T21:13:47.899Z,97962.00
2023-02-18T21:16:18.467Z,97944.00
2023-02-18T21:18:47.285Z,97950.00
2023-02-18T21:21:16.572Z,97949.00
2023-02-18T21:23:45.080Z,97948.00
2023-02-18T21:26:16.681Z,97951.00
2023-02-18T21:28:50.082Z,97952.00
2023-02-18T21:31:22.815Z,97950.00
2023-02-18T21:33:51.782Z,97943.00
2023-02-18T21:36:23.096Z,97948.00
2023-02-18T21:38:56.167Z,97942.00
2023-02-18T21:41:25.447Z,97951.00
2023-02-18T21:43:55.423Z,97938.00
2023-02-18T21:46:26.724Z,97943.00
2023-02-18T21:49:06.700Z,97938.00
2023-02-18T21:51:57.908Z,97955.00
2023-02-18T21:54:30.368Z,97939.00
2023-02-18T21:57:00.710Z,97943.00
2023-02-18T21:59:32.862Z,97945.00
2023-02-18T22:02:02.418Z,97944.00
2023-02-18T22:04:38.386Z,97935.00
2023-02-18T22:07:06.730Z,97938.00
2023-02-18T22:09:34.919Z,97941.00
2023-02-18T22:12:03.641Z,97931.00
2023-02-18T22:14:33.525Z,97923.00
2023-02-18T22:17:02.306Z,97924.00
2023-02-18T22:19:30.461Z,97923.00
2023-02-18T22:21:59.225Z,97942.00
2023-02-18T22:24:27.532Z,97930.00
2023-02-18T22:26:55.771Z,97924.00
2023-02-18T22:29:24.315Z,97926.00
2023-02-18T22:31:54.108Z,97904.00
2023-02-18T22:34:23.892Z,97914.00
2023-02-18T22:36:52.075Z,97902.00
2023-02-18T22:39:20.343Z,97913.00
2023-02-18T22:41:48.612Z,97917.00
2023-02-18T22:44:18.406Z,97903.00
2023-02-18T22:46:46.661Z,97902.00
2023-02-18T22:49:16.296Z,97903.00
2023-02-18T22:51:45.483Z,97899.00
2023-02-18T22:54:17.193Z,97908.00
2023-02-18T22:56:47.078Z,97895.00
2023-02-18T22:59:19.105Z,97891.00
2023-02-18T23:01:50.441Z,97894.00
2023-02-18T23:04:21.665Z,97894.00
2023-02-18T23:06:51.547Z,97891.00
2023-02-18T23:09:22.474Z,97899.00
2023-02-18T23:11:53.074Z,97893.00
2023-02-18T23:14:22.439Z,97888.00
2023-02-18T23:17:12.337Z,97898.00
2023-02-18T23:19:44.565Z,97888.00
2023-02-18T23:22:16.363Z,97893.00
2023-02-18T23:24:47.276Z,97900.00
2023-02-18T23:27:16.885Z,97894.00
2023-02-18T23:29:45.161Z,97889.00
2023-02-18T23:32:13.516Z,97885.00
2023-02-18T23:34:43.223Z,97879.00
2023-02-18T23:37:11.633Z,97873.00
2023-02-18T23:39:40.354Z,97877.00
2023-02-18T23:42:09.165Z,97874.00
2023-02-18T23:44:37.373Z,97869.00
2023-02-18T23:47:05.574Z,97867.00
2023-02-18T23:49:33.739Z,97869.00
2023-02-18T23:52:03.383Z,97868.00
2023-02-18T23:54:31.519Z,97859.00
2023-02-18T23:56:59.623Z,97855.00
2023-02-18T23:59:27.890Z,97850.00
